Point Richmond, California
Current Conditions -  °F | °C
As of 3:55 PM on Monday 20 Oct 2014 (Local Time) from KDVO Reporting Station
Few Clouds Few Clouds  
Wind Chill: 68°   Ceiling: Unl
Heat Index: 68°   Visibility: NA
Dew Point: 50°   Wind: 10mph
Humidity: 52%   Direction: 280°W
Pressure: 29.96"   Gusts: 21mph
Location:  37.9525°N, 122.379°W
Report Text: KDVO 202255Z AUTO 28009G18KT FEW039 20/10 A2996 RMK AO2
Loading
Personal Weather Stations






























Interactive Weather Map
Tropical Storm Tracking
New forecast layout! Learn more

10-Day Weather Forecast

Advertisements
Track Severe Weather on mobile